Fort Polk, Louisiana
Current Conditions -  °F | °C
As of 11:58 AM on Sunday 25 Jan 2015 (Local Time) from KPOE Reporting Station
Clear Clear  
Wind Chill: 62°   Ceiling: Unl
Heat Index: 62°   Visibility: 10mi
Dew Point: 42°   Wind: 12mph
Humidity: 49%   Direction: 270°W
Pressure: 29.92"   Gusts: NA
Location:  30.9864°N, 93.2144°W
Report Text: KPOE 251758Z AUTO 27010KT 10SM CLR 16/06 A2992 RMK AO2 SLP134 T01640055 10164 20044 58016 $
Loading
Personal Weather Stations






























Interactive Weather Map New forecast layout! Learn more

10-Day Weather Forecast

Advertisements
Track Severe Weather on mobile